Terminal Aerodrome Forecast
Issued by NWS Duluth, MN

Home | Current Version | Previous Version | Text Only | Print | Product List | Glossary On
Versions: 1 2 3 4 5 6 7 8 9 10 11 12 13 14 15 16 17 18 19
962
FTUS43 KDLH 220253 AAB
TAFDLH
TAF AMD
KDLH 220253Z 2203/2224 32017KT P6SM -SN BKN025
     FM220400 31009KT P6SM BKN030
     FM220600 31008KT P6SM SCT030
     FM220800 30006KT P6SM SCT250
     FM221600 23008KT P6SM BKN250
     FM222200 21010KT 4SM -SN OVC025=

USA.gov is the U.S. government's official web portal to all federal, state and local government web resources and services.